sensor_id;sensor_type;location;lat;lon;timestamp;pressure;altitude;pressure_sealevel;temperature
34961;BMP280;30789;52.030;7.110;2022-10-26T00:01:17;100651.84;;;10.62
34961;BMP280;30789;52.030;7.110;2022-10-26T00:03:45;100655.34;;;10.61
34961;BMP280;30789;52.030;7.110;2022-10-26T00:06:13;100650.97;;;10.63
34961;BMP280;30789;52.030;7.110;2022-10-26T00:08:40;100650.16;;;10.61
34961;BMP280;30789;52.030;7.110;2022-10-26T00:11:07;100643.34;;;10.57
34961;BMP280;30789;52.030;7.110;2022-10-26T00:13:34;100641.09;;;10.43
34961;BMP280;30789;52.030;7.110;2022-10-26T00:16:06;100642.81;;;10.44
34961;BMP280;30789;52.030;7.110;2022-10-26T00:18:33;100642.09;;;10.39
34961;BMP280;30789;52.030;7.110;2022-10-26T00:21:01;100646.44;;;10.37
34961;BMP280;30789;52.030;7.110;2022-10-26T00:23:28;100641.66;;;10.56
34961;BMP280;30789;52.030;7.110;2022-10-26T00:25:57;100643.19;;;10.63
34961;BMP280;30789;52.030;7.110;2022-10-26T00:28:23;100636.22;;;10.67
34961;BMP280;30789;52.030;7.110;2022-10-26T00:30:50;100639.72;;;10.64
34961;BMP280;30789;52.030;7.110;2022-10-26T00:33:18;100637.16;;;10.64
34961;BMP280;30789;52.030;7.110;2022-10-26T00:35:47;100631.81;;;10.70
34961;BMP280;30789;52.030;7.110;2022-10-26T00:38:14;100637.81;;;10.72
34961;BMP280;30789;52.030;7.110;2022-10-26T00:40:40;100633.25;;;10.80
34961;BMP280;30789;52.030;7.110;2022-10-26T00:43:14;100639.13;;;10.87
34961;BMP280;30789;52.030;7.110;2022-10-26T00:45:41;100640.00;;;10.86
34961;BMP280;30789;52.030;7.110;2022-10-26T00:48:21;100636.63;;;10.84
34961;BMP280;30789;52.030;7.110;2022-10-26T00:50:51;100632.47;;;10.78
34961;BMP280;30789;52.030;7.110;2022-10-26T00:53:19;100631.63;;;10.78
34961;BMP280;30789;52.030;7.110;2022-10-26T00:55:49;100627.53;;;10.69
34961;BMP280;30789;52.030;7.110;2022-10-26T00:58:17;100631.84;;;10.69
34961;BMP280;30789;52.030;7.110;2022-10-26T01:00:43;100625.19;;;10.60
34961;BMP280;30789;52.030;7.110;2022-10-26T01:03:10;100623.31;;;10.67
34961;BMP280;30789;52.030;7.110;2022-10-26T01:05:39;100624.91;;;10.71
34961;BMP280;30789;52.030;7.110;2022-10-26T01:08:07;100619.78;;;10.68
34961;BMP280;30789;52.030;7.110;2022-10-26T01:10:35;100619.69;;;10.72
34961;BMP280;30789;52.030;7.110;2022-10-26T01:13:03;100617.13;;;10.72
34961;BMP280;30789;52.030;7.110;2022-10-26T01:15:38;100611.97;;;10.71
34961;BMP280;30789;52.030;7.110;2022-10-26T01:18:12;100613.38;;;10.82
34961;BMP280;30789;52.030;7.110;2022-10-26T01:21:06;100608.13;;;10.85
34961;BMP280;30789;52.030;7.110;2022-10-26T01:23:44;100610.59;;;10.90
34961;BMP280;30789;52.030;7.110;2022-10-26T01:26:45;100605.66;;;10.81
34961;BMP280;30789;52.030;7.110;2022-10-26T01:29:48;100592.28;;;10.97
34961;BMP280;30789;52.030;7.110;2022-10-26T01:32:22;100598.09;;;11.04
34961;BMP280;30789;52.030;7.110;2022-10-26T01:34:55;100594.72;;;11.02
34961;BMP280;30789;52.030;7.110;2022-10-26T01:37:27;100592.94;;;11.04
34961;BMP280;30789;52.030;7.110;2022-10-26T01:40:00;100592.75;;;11.10
34961;BMP280;30789;52.030;7.110;2022-10-26T01:42:30;100589.78;;;11.24
34961;BMP280;30789;52.030;7.110;2022-10-26T01:45:00;100585.00;;;11.39
34961;BMP280;30789;52.030;7.110;2022-10-26T01:47:30;100582.16;;;11.47
34961;BMP280;30789;52.030;7.110;2022-10-26T01:49:59;100581.28;;;11.48
34961;BMP280;30789;52.030;7.110;2022-10-26T01:52:27;100571.75;;;11.50
34961;BMP280;30789;52.030;7.110;2022-10-26T01:54:59;100564.81;;;11.51
34961;BMP280;30789;52.030;7.110;2022-10-26T01:57:26;100569.69;;;11.60
34961;BMP280;30789;52.030;7.110;2022-10-26T02:00:07;100562.97;;;11.54
34961;BMP280;30789;52.030;7.110;2022-10-26T02:02:59;100566.63;;;11.47
34961;BMP280;30789;52.030;7.110;2022-10-26T02:05:44;100564.84;;;11.49
34961;BMP280;30789;52.030;7.110;2022-10-26T02:08:22;100559.63;;;11.51
34961;BMP280;30789;52.030;7.110;2022-10-26T02:11:00;100556.00;;;11.56
34961;BMP280;30789;52.030;7.110;2022-10-26T02:13:32;100562.75;;;11.62
34961;BMP280;30789;52.030;7.110;2022-10-26T02:16:13;100547.16;;;11.63
34961;BMP280;30789;52.030;7.110;2022-10-26T02:18:49;100554.09;;;11.63
34961;BMP280;30789;52.030;7.110;2022-10-26T02:21:20;100554.81;;;11.66
34961;BMP280;30789;52.030;7.110;2022-10-26T02:23:50;100550.34;;;11.71
34961;BMP280;30789;52.030;7.110;2022-10-26T02:26:21;100541.66;;;11.74
34961;BMP280;30789;52.030;7.110;2022-10-26T02:28:50;100538.22;;;11.73
34961;BMP280;30789;52.030;7.110;2022-10-26T02:31:20;100539.09;;;11.74
34961;BMP280;30789;52.030;7.110;2022-10-26T02:33:50;100533.84;;;11.75
34961;BMP280;30789;52.030;7.110;2022-10-26T02:36:22;100528.56;;;11.78
34961;BMP280;30789;52.030;7.110;2022-10-26T02:38:51;100526.13;;;11.74
34961;BMP280;30789;52.030;7.110;2022-10-26T02:41:20;100524.06;;;11.84
34961;BMP280;30789;52.030;7.110;2022-10-26T02:43:52;100534.50;;;11.82
34961;BMP280;30789;52.030;7.110;2022-10-26T02:46:21;100523.25;;;11.83
34961;BMP280;30789;52.030;7.110;2022-10-26T02:48:51;100529.25;;;11.84
34961;BMP280;30789;52.030;7.110;2022-10-26T02:51:24;100527.59;;;11.83
34961;BMP280;30789;52.030;7.110;2022-10-26T02:53:56;100528.44;;;11.83
34961;BMP280;30789;52.030;7.110;2022-10-26T02:56:27;100530.03;;;11.87
34961;BMP280;30789;52.030;7.110;2022-10-26T02:58:59;100531.75;;;11.87
34961;BMP280;30789;52.030;7.110;2022-10-26T03:01:26;100526.47;;;11.90
34961;BMP280;30789;52.030;7.110;2022-10-26T03:03:57;100532.44;;;11.92
34961;BMP280;30789;52.030;7.110;2022-10-26T03:06:24;100533.22;;;11.95
34961;BMP280;30789;52.030;7.110;2022-10-26T03:08:51;100527.03;;;11.99
34961;BMP280;30789;52.030;7.110;2022-10-26T03:11:18;100527.19;;;11.95
34961;BMP280;30789;52.030;7.110;2022-10-26T03:13:44;100535.03;;;11.92
34961;BMP280;30789;52.030;7.110;2022-10-26T03:16:10;100534.03;;;11.96
34961;BMP280;30789;52.030;7.110;2022-10-26T03:18:37;100534.03;;;11.96
34961;BMP280;30789;52.030;7.110;2022-10-26T03:21:05;100530.56;;;11.97
34961;BMP280;30789;52.030;7.110;2022-10-26T03:23:31;100532.91;;;12.04
34961;BMP280;30789;52.030;7.110;2022-10-26T03:25:58;100527.03;;;11.99
34961;BMP280;30789;52.030;7.110;2022-10-26T03:28:25;100527.13;;;11.96
34961;BMP280;30789;52.030;7.110;2022-10-26T03:30:52;100517.75;;;11.92
34961;BMP280;30789;52.030;7.110;2022-10-26T03:33:18;100519.63;;;11.89
34961;BMP280;30789;52.030;7.110;2022-10-26T03:35:45;100521.25;;;11.91
34961;BMP280;30789;52.030;7.110;2022-10-26T03:38:13;100525.69;;;11.88
34961;BMP280;30789;52.030;7.110;2022-10-26T03:40:39;100528.31;;;11.86
34961;BMP280;30789;52.030;7.110;2022-10-26T03:43:06;100514.44;;;11.89
34961;BMP280;30789;52.030;7.110;2022-10-26T03:45:32;100511.13;;;11.84
34961;BMP280;30789;52.030;7.110;2022-10-26T03:47:59;100503.91;;;11.93
34961;BMP280;30789;52.030;7.110;2022-10-26T03:50:25;100502.94;;;11.96
34961;BMP280;30789;52.030;7.110;2022-10-26T03:52:51;100506.38;;;11.96
34961;BMP280;30789;52.030;7.110;2022-10-26T03:55:19;100511.31;;;12.04
34961;BMP280;30789;52.030;7.110;2022-10-26T03:57:46;100507.91;;;12.02
34961;BMP280;30789;52.030;7.110;2022-10-26T04:00:14;100505.44;;;11.99
34961;BMP280;30789;52.030;7.110;2022-10-26T04:02:42;100502.69;;;12.03
34961;BMP280;30789;52.030;7.110;2022-10-26T04:05:11;100500.88;;;12.07
34961;BMP280;30789;52.030;7.110;2022-10-26T04:07:37;100502.19;;;12.18
34961;BMP280;30789;52.030;7.110;2022-10-26T04:10:05;100492.72;;;12.17
34961;BMP280;30789;52.030;7.110;2022-10-26T04:12:35;100492.81;;;12.14
34961;BMP280;30789;52.030;7.110;2022-10-26T04:15:02;100495.25;;;12.19
34961;BMP280;30789;52.030;7.110;2022-10-26T04:17:28;100497.00;;;12.18
34961;BMP280;30789;52.030;7.110;2022-10-26T04:19:54;100488.22;;;12.23
34961;BMP280;30789;52.030;7.110;2022-10-26T04:22:21;100493.13;;;12.30
34961;BMP280;30789;52.030;7.110;2022-10-26T04:24:47;100489.00;;;12.25
34961;BMP280;30789;52.030;7.110;2022-10-26T04:27:14;100491.69;;;12.22
34961;BMP280;30789;52.030;7.110;2022-10-26T04:29:42;100498.78;;;12.16
34961;BMP280;30789;52.030;7.110;2022-10-26T04:32:08;100496.84;;;12.23
34961;BMP280;30789;52.030;7.110;2022-10-26T04:34:35;100492.50;;;12.24
34961;BMP280;30789;52.030;7.110;2022-10-26T04:37:01;100500.13;;;12.28
34961;BMP280;30789;52.030;7.110;2022-10-26T04:39:27;100494.94;;;12.28
34961;BMP280;30789;52.030;7.110;2022-10-26T04:41:54;100493.66;;;12.15
34961;BMP280;30789;52.030;7.110;2022-10-26T04:44:20;100501.75;;;12.06
34961;BMP280;30789;52.030;7.110;2022-10-26T04:46:48;100495.47;;;12.13
34961;BMP280;30789;52.030;7.110;2022-10-26T04:49:14;100486.78;;;12.14
34961;BMP280;30789;52.030;7.110;2022-10-26T04:51:41;100492.06;;;12.11
34961;BMP280;30789;52.030;7.110;2022-10-26T04:54:07;100495.47;;;12.13
34961;BMP280;30789;52.030;7.110;2022-10-26T04:56:34;100493.94;;;12.07
34961;BMP280;30789;52.030;7.110;2022-10-26T04:59:00;100490.34;;;12.11
34961;BMP280;30789;52.030;7.110;2022-10-26T05:01:27;100490.16;;;12.16
34961;BMP280;30789;52.030;7.110;2022-10-26T05:03:55;100493.59;;;12.16
34961;BMP280;30789;52.030;7.110;2022-10-26T05:06:21;100492.03;;;12.12
34961;BMP280;30789;52.030;7.110;2022-10-26T05:08:48;100491.13;;;12.13
34961;BMP280;30789;52.030;7.110;2022-10-26T05:11:15;100495.13;;;12.22
34961;BMP280;30789;52.030;7.110;2022-10-26T05:13:41;100492.47;;;12.25
34961;BMP280;30789;52.030;7.110;2022-10-26T05:16:08;100492.59;;;12.20
34961;BMP280;30789;52.030;7.110;2022-10-26T05:18:34;100495.06;;;12.25
34961;BMP280;30789;52.030;7.110;2022-10-26T05:21:02;100495.72;;;12.30
34961;BMP280;30789;52.030;7.110;2022-10-26T05:23:29;100487.78;;;12.35
34961;BMP280;30789;52.030;7.110;2022-10-26T05:25:55;100486.25;;;12.29
34961;BMP280;30789;52.030;7.110;2022-10-26T05:28:22;100494.00;;;12.31
34961;BMP280;30789;52.030;7.110;2022-10-26T05:30:48;100492.13;;;12.34
34961;BMP280;30789;52.030;7.110;2022-10-26T05:33:14;100496.63;;;12.29
34961;BMP280;30789;52.030;7.110;2022-10-26T05:35:41;100502.53;;;12.33
34961;BMP280;30789;52.030;7.110;2022-10-26T05:38:10;100500.34;;;12.45
34961;BMP280;30789;52.030;7.110;2022-10-26T05:40:38;100500.31;;;12.47
34961;BMP280;30789;52.030;7.110;2022-10-26T05:43:11;100491.91;;;12.64
34961;BMP280;30789;52.030;7.110;2022-10-26T05:45:38;100493.91;;;12.80
34961;BMP280;30789;52.030;7.110;2022-10-26T05:48:05;100491.69;;;12.93
34961;BMP280;30789;52.030;7.110;2022-10-26T05:50:31;100492.88;;;13.08
34961;BMP280;30789;52.030;7.110;2022-10-26T05:52:58;100493.47;;;13.16
34961;BMP280;30789;52.030;7.110;2022-10-26T05:55:26;100489.03;;;13.18
34961;BMP280;30789;52.030;7.110;2022-10-26T05:57:53;100491.63;;;13.18
34961;BMP280;30789;52.030;7.110;2022-10-26T06:00:22;100495.06;;;13.18
34961;BMP280;30789;52.030;7.110;2022-10-26T06:03:06;100489.88;;;13.18
34961;BMP280;30789;52.030;7.110;2022-10-26T06:05:37;100488.69;;;13.27
34961;BMP280;30789;52.030;7.110;2022-10-26T06:08:07;100488.69;;;13.27
34961;BMP280;30789;52.030;7.110;2022-10-26T06:10:37;100492.94;;;13.29
34961;BMP280;30789;52.030;7.110;2022-10-26T06:13:04;100498.78;;;13.34
34961;BMP280;30789;52.030;7.110;2022-10-26T06:15:36;100497.44;;;13.24
34961;BMP280;30789;52.030;7.110;2022-10-26T06:18:09;100501.25;;;13.16
34961;BMP280;30789;52.030;7.110;2022-10-26T06:20:49;100504.03;;;13.10
34961;BMP280;30789;52.030;7.110;2022-10-26T06:23:33;100501.91;;;12.97
34961;BMP280;30789;52.030;7.110;2022-10-26T06:26:09;100503.88;;;12.91
34961;BMP280;30789;52.030;7.110;2022-10-26T06:28:48;100508.84;;;12.97
34961;BMP280;30789;52.030;7.110;2022-10-26T06:31:15;100511.78;;;12.88
34961;BMP280;30789;52.030;7.110;2022-10-26T06:33:42;100504.56;;;12.73
34961;BMP280;30789;52.030;7.110;2022-10-26T06:36:17;100509.00;;;12.69
34961;BMP280;30789;52.030;7.110;2022-10-26T06:38:47;100513.50;;;12.64
34961;BMP280;30789;52.030;7.110;2022-10-26T06:41:17;100517.00;;;12.63
34961;BMP280;30789;52.030;7.110;2022-10-26T06:43:47;100518.41;;;12.48
34961;BMP280;30789;52.030;7.110;2022-10-26T06:46:24;100519.09;;;12.53
34961;BMP280;30789;52.030;7.110;2022-10-26T06:48:59;100516.50;;;12.53
34961;BMP280;30789;52.030;7.110;2022-10-26T06:51:28;100518.25;;;12.53
34961;BMP280;30789;52.030;7.110;2022-10-26T06:53:59;100519.56;;;12.65
34961;BMP280;30789;52.030;7.110;2022-10-26T06:56:32;100525.53;;;12.67
34961;BMP280;30789;52.030;7.110;2022-10-26T06:59:05;100522.59;;;12.76
34961;BMP280;30789;52.030;7.110;2022-10-26T07:01:33;100524.25;;;12.78
34961;BMP280;30789;52.030;7.110;2022-10-26T07:03:59;100519.78;;;12.82
34961;BMP280;30789;52.030;7.110;2022-10-26T07:06:26;100523.63;;;12.95
34961;BMP280;30789;52.030;7.110;2022-10-26T07:08:52;100527.69;;;13.02
34961;BMP280;30789;52.030;7.110;2022-10-26T07:11:19;100526.22;;;13.18
34961;BMP280;30789;52.030;7.110;2022-10-26T07:13:46;100518.53;;;13.17
34961;BMP280;30789;52.030;7.110;2022-10-26T07:16:14;100530.56;;;13.18
34961;BMP280;30789;52.030;7.110;2022-10-26T07:18:40;100531.28;;;13.23
34961;BMP280;30789;52.030;7.110;2022-10-26T07:21:06;100530.22;;;13.27
34961;BMP280;30789;52.030;7.110;2022-10-26T07:23:34;100533.88;;;13.23
34961;BMP280;30789;52.030;7.110;2022-10-26T07:26:01;100538.03;;;13.27
34961;BMP280;30789;52.030;7.110;2022-10-26T07:28:27;100540.25;;;13.36
34961;BMP280;30789;52.030;7.110;2022-10-26T07:30:57;100538.69;;;13.32
34961;BMP280;30789;52.030;7.110;2022-10-26T07:33:23;100538.41;;;13.39
34961;BMP280;30789;52.030;7.110;2022-10-26T07:35:50;100541.72;;;13.43
34961;BMP280;30789;52.030;7.110;2022-10-26T07:38:17;100544.16;;;13.48
34961;BMP280;30789;52.030;7.110;2022-10-26T07:40:43;100541.38;;;13.52
34961;BMP280;30789;52.030;7.110;2022-10-26T07:43:10;100540.28;;;13.58
34961;BMP280;30789;52.030;7.110;2022-10-26T07:45:36;100536.53;;;13.65
34961;BMP280;30789;52.030;7.110;2022-10-26T07:48:06;100533.59;;;13.72
34961;BMP280;30789;52.030;7.110;2022-10-26T07:50:32;100534.59;;;13.70
34961;BMP280;30789;52.030;7.110;2022-10-26T07:52:59;100545.47;;;13.79
34961;BMP280;30789;52.030;7.110;2022-10-26T07:55:25;100538.16;;;13.89
34961;BMP280;30789;52.030;7.110;2022-10-26T07:57:53;100534.81;;;13.86
34961;BMP280;30789;52.030;7.110;2022-10-26T08:00:20;100538.00;;;13.92
34961;BMP280;30789;52.030;7.110;2022-10-26T08:02:46;100528.69;;;14.08
34961;BMP280;30789;52.030;7.110;2022-10-26T08:05:14;100532.59;;;14.18
34961;BMP280;30789;52.030;7.110;2022-10-26T08:07:41;100524.47;;;14.26
34961;BMP280;30789;52.030;7.110;2022-10-26T08:10:09;100523.63;;;14.26
34961;BMP280;30789;52.030;7.110;2022-10-26T08:12:35;100517.31;;;14.31
34961;BMP280;30789;52.030;7.110;2022-10-26T08:15:02;100520.53;;;14.38
34961;BMP280;30789;52.030;7.110;2022-10-26T08:17:29;100511.00;;;14.37
34961;BMP280;30789;52.030;7.110;2022-10-26T08:19:57;100516.16;;;14.38
34961;BMP280;30789;52.030;7.110;2022-10-26T08:22:27;100518.25;;;14.50
34961;BMP280;30789;52.030;7.110;2022-10-26T08:24:54;100512.94;;;14.52
34961;BMP280;30789;52.030;7.110;2022-10-26T08:27:20;100520.94;;;14.68
34961;BMP280;30789;52.030;7.110;2022-10-26T08:29:47;100503.91;;;14.60
34961;BMP280;30789;52.030;7.110;2022-10-26T08:32:13;100510.19;;;14.75
34961;BMP280;30789;52.030;7.110;2022-10-26T08:34:40;100515.97;;;14.82
34961;BMP280;30789;52.030;7.110;2022-10-26T08:37:06;100512.69;;;14.77
34961;BMP280;30789;52.030;7.110;2022-10-26T08:39:34;100508.69;;;14.88
34961;BMP280;30789;52.030;7.110;2022-10-26T08:42:03;100520.34;;;15.00
34961;BMP280;30789;52.030;7.110;2022-10-26T08:44:33;100521.03;;;15.03
34961;BMP280;30789;52.030;7.110;2022-10-26T08:47:06;100532.34;;;15.02
34961;BMP280;30789;52.030;7.110;2022-10-26T08:49:40;100533.53;;;14.95
34961;BMP280;30789;52.030;7.110;2022-10-26T08:52:12;100536.25;;;14.94
34961;BMP280;30789;52.030;7.110;2022-10-26T08:54:44;100544.25;;;14.89
34961;BMP280;30789;52.030;7.110;2022-10-26T08:57:18;100536.78;;;14.82
34961;BMP280;30789;52.030;7.110;2022-10-26T08:59:51;100538.00;;;14.93
34961;BMP280;30789;52.030;7.110;2022-10-26T09:02:19;100536.44;;;15.08
34961;BMP280;30789;52.030;7.110;2022-10-26T09:04:46;100543.69;;;15.20
34961;BMP280;30789;52.030;7.110;2022-10-26T09:07:22;100548.56;;;15.28
34961;BMP280;30789;52.030;7.110;2022-10-26T09:10:02;100559.31;;;15.39
34961;BMP280;30789;52.030;7.110;2022-10-26T09:12:37;100565.63;;;15.54
34961;BMP280;30789;52.030;7.110;2022-10-26T09:15:13;100567.28;;;15.73
34961;BMP280;30789;52.030;7.110;2022-10-26T09:17:48;100569.13;;;15.89
34961;BMP280;30789;52.030;7.110;2022-10-26T09:23:20;100580.72;;;16.17
34961;BMP280;30789;52.030;7.110;2022-10-26T09:25:56;100589.56;;;16.32
34961;BMP280;30789;52.030;7.110;2022-10-26T09:28:24;100590.97;;;16.39
34961;BMP280;30789;52.030;7.110;2022-10-26T09:30:52;100590.25;;;16.36
34961;BMP280;30789;52.030;7.110;2022-10-26T09:33:21;100596.63;;;16.30
34961;BMP280;30789;52.030;7.110;2022-10-26T09:35:51;100598.78;;;16.22
34961;BMP280;30789;52.030;7.110;2022-10-26T09:38:22;100604.22;;;16.35
34961;BMP280;30789;52.030;7.110;2022-10-26T09:40:57;100609.47;;;16.52
34961;BMP280;30789;52.030;7.110;2022-10-26T09:43:28;100607.84;;;16.49
34961;BMP280;30789;52.030;7.110;2022-10-26T09:45:57;100615.59;;;16.68
34961;BMP280;30789;52.030;7.110;2022-10-26T09:48:27;100619.13;;;16.67
34961;BMP280;30789;52.030;7.110;2022-10-26T09:50:56;100618.16;;;16.70
34961;BMP280;30789;52.030;7.110;2022-10-26T09:53:24;100624.09;;;16.72
34961;BMP280;30789;52.030;7.110;2022-10-26T09:55:59;100636.72;;;16.81
34961;BMP280;30789;52.030;7.110;2022-10-26T09:58:29;100628.81;;;16.82
34961;BMP280;30789;52.030;7.110;2022-10-26T10:00:56;100617.34;;;16.85
34961;BMP280;30789;52.030;7.110;2022-10-26T10:03:25;100613.13;;;17.15
34961;BMP280;30789;52.030;7.110;2022-10-26T10:05:51;100615.25;;;17.24
34961;BMP280;30789;52.030;7.110;2022-10-26T10:08:20;100617.69;;;17.27
34961;BMP280;30789;52.030;7.110;2022-10-26T10:11:02;100619.91;;;17.51
34961;BMP280;30789;52.030;7.110;2022-10-26T10:13:31;100625.94;;;17.84
34961;BMP280;30789;52.030;7.110;2022-10-26T10:16:03;100634.72;;;18.29
34961;BMP280;30789;52.030;7.110;2022-10-26T10:18:30;100629.22;;;18.33
34961;BMP280;30789;52.030;7.110;2022-10-26T10:20:57;100633.03;;;18.28
34961;BMP280;30789;52.030;7.110;2022-10-26T10:23:26;100638.72;;;18.20
34961;BMP280;30789;52.030;7.110;2022-10-26T10:26:04;100637.78;;;18.05
34961;BMP280;30789;52.030;7.110;2022-10-26T10:28:31;100638.91;;;18.17
34961;BMP280;30789;52.030;7.110;2022-10-26T10:31:00;100643.22;;;18.32
34961;BMP280;30789;52.030;7.110;2022-10-26T10:33:38;100641.59;;;18.75
34961;BMP280;30789;52.030;7.110;2022-10-26T10:36:08;100638.53;;;19.39
34961;BMP280;30789;52.030;7.110;2022-10-26T10:38:37;100640.94;;;20.12
34961;BMP280;30789;52.030;7.110;2022-10-26T10:41:14;100643.19;;;20.70
34961;BMP280;30789;52.030;7.110;2022-10-26T10:43:43;100651.56;;;20.62
34961;BMP280;30789;52.030;7.110;2022-10-26T10:46:17;100638.56;;;20.86
34961;BMP280;30789;52.030;7.110;2022-10-26T10:48:46;100639.09;;;21.29
34961;BMP280;30789;52.030;7.110;2022-10-26T10:51:17;100639.91;;;21.79
34961;BMP280;30789;52.030;7.110;2022-10-26T10:53:46;100630.19;;;21.19
34961;BMP280;30789;52.030;7.110;2022-10-26T10:59:14;100643.28;;;21.06
34961;BMP280;30789;52.030;7.110;2022-10-26T11:01:48;100640.66;;;21.44
34961;BMP280;30789;52.030;7.110;2022-10-26T11:04:26;100648.69;;;21.18
34961;BMP280;30789;52.030;7.110;2022-10-26T11:06:59;100657.66;;;20.63
34961;BMP280;30789;52.030;7.110;2022-10-26T11:09:31;100647.78;;;20.27
34961;BMP280;30789;52.030;7.110;2022-10-26T11:12:03;100642.75;;;20.24
34961;BMP280;30789;52.030;7.110;2022-10-26T11:14:35;100647.97;;;20.11
34961;BMP280;30789;52.030;7.110;2022-10-26T11:17:07;100640.06;;;20.38
34961;BMP280;30789;52.030;7.110;2022-10-26T11:19:42;100641.69;;;20.53
34961;BMP280;30789;52.030;7.110;2022-10-26T11:22:14;100643.81;;;20.86
34961;BMP280;30789;52.030;7.110;2022-10-26T11:24:44;100650.84;;;21.11
34961;BMP280;30789;52.030;7.110;2022-10-26T11:27:16;100657.72;;;21.26
34961;BMP280;30789;52.030;7.110;2022-10-26T11:29:50;100663.00;;;20.61
34961;BMP280;30789;52.030;7.110;2022-10-26T11:32:22;100652.00;;;20.69
34961;BMP280;30789;52.030;7.110;2022-10-26T11:34:54;100656.63;;;21.41
34961;BMP280;30789;52.030;7.110;2022-10-26T11:37:29;100661.91;;;21.41
34961;BMP280;30789;52.030;7.110;2022-10-26T11:40:01;100663.66;;;21.54
34961;BMP280;30789;52.030;7.110;2022-10-26T11:42:34;100655.78;;;21.90
34961;BMP280;30789;52.030;7.110;2022-10-26T11:45:09;100664.81;;;22.46
34961;BMP280;30789;52.030;7.110;2022-10-26T11:47:43;100663.66;;;22.96
34961;BMP280;30789;52.030;7.110;2022-10-26T11:50:14;100661.06;;;23.52
34961;BMP280;30789;52.030;7.110;2022-10-26T11:52:46;100670.56;;;24.09
34961;BMP280;30789;52.030;7.110;2022-10-26T11:55:15;100677.75;;;25.12
34961;BMP280;30789;52.030;7.110;2022-10-26T11:57:44;100671.22;;;25.56
34961;BMP280;30789;52.030;7.110;2022-10-26T12:00:14;100677.75;;;25.12
34961;BMP280;30789;52.030;7.110;2022-10-26T12:02:45;100680.16;;;25.95
34961;BMP280;30789;52.030;7.110;2022-10-26T12:05:20;100693.66;;;25.52
34961;BMP280;30789;52.030;7.110;2022-10-26T12:07:49;100689.53;;;24.03
34961;BMP280;30789;52.030;7.110;2022-10-26T12:10:24;100692.47;;;24.32
34961;BMP280;30789;52.030;7.110;2022-10-26T12:12:58;100696.97;;;24.73
34961;BMP280;30789;52.030;7.110;2022-10-26T12:15:33;100706.06;;;25.52
34961;BMP280;30789;52.030;7.110;2022-10-26T12:18:09;100704.59;;;25.38
34961;BMP280;30789;52.030;7.110;2022-10-26T12:20:53;100700.97;;;26.09
34961;BMP280;30789;52.030;7.110;2022-10-26T12:23:21;100705.81;;;25.24
34961;BMP280;30789;52.030;7.110;2022-10-26T12:25:48;100708.97;;;26.38
34961;BMP280;30789;52.030;7.110;2022-10-26T12:28:40;100715.53;;;26.44
34961;BMP280;30789;52.030;7.110;2022-10-26T12:31:41;100724.78;;;24.13
34961;BMP280;30789;52.030;7.110;2022-10-26T12:34:10;100722.47;;;23.65
34961;BMP280;30789;52.030;7.110;2022-10-26T12:36:48;100716.31;;;23.87
34961;BMP280;30789;52.030;7.110;2022-10-26T12:39:26;100722.44;;;24.42
34961;BMP280;30789;52.030;7.110;2022-10-26T12:41:55;100725.19;;;25.04
34961;BMP280;30789;52.030;7.110;2022-10-26T12:44:34;100725.25;;;24.29
34961;BMP280;30789;52.030;7.110;2022-10-26T12:47:01;100737.19;;;24.55
34961;BMP280;30789;52.030;7.110;2022-10-26T12:52:30;100723.00;;;24.13
34961;BMP280;30789;52.030;7.110;2022-10-26T12:58:16;100722.69;;;23.73
34961;BMP280;30789;52.030;7.110;2022-10-26T13:01:07;100734.47;;;23.47
34961;BMP280;30789;52.030;7.110;2022-10-26T13:03:45;100727.00;;;23.41
34961;BMP280;30789;52.030;7.110;2022-10-26T13:06:30;100729.03;;;23.93
34961;BMP280;30789;52.030;7.110;2022-10-26T13:09:06;100735.66;;;23.76
34961;BMP280;30789;52.030;7.110;2022-10-26T13:11:35;100747.97;;;23.98
34961;BMP280;30789;52.030;7.110;2022-10-26T13:14:04;100744.50;;;24.63
34961;BMP280;30789;52.030;7.110;2022-10-26T13:16:33;100744.72;;;24.17
34961;BMP280;30789;52.030;7.110;2022-10-26T13:19:00;100749.28;;;24.69
34961;BMP280;30789;52.030;7.110;2022-10-26T13:21:27;100751.88;;;24.48
34961;BMP280;30789;52.030;7.110;2022-10-26T13:23:57;100756.88;;;24.83
34961;BMP280;30789;52.030;7.110;2022-10-26T13:26:27;100756.22;;;24.16
34961;BMP280;30789;52.030;7.110;2022-10-26T13:28:56;100762.34;;;24.71
34961;BMP280;30789;52.030;7.110;2022-10-26T13:31:52;100772.56;;;23.43
34961;BMP280;30789;52.030;7.110;2022-10-26T13:34:24;100766.97;;;23.48
34961;BMP280;30789;52.030;7.110;2022-10-26T13:36:58;100755.97;;;23.30
34961;BMP280;30789;52.030;7.110;2022-10-26T13:39:29;100755.56;;;22.66
34961;BMP280;30789;52.030;7.110;2022-10-26T13:41:58;100750.44;;;21.92
34961;BMP280;30789;52.030;7.110;2022-10-26T13:44:28;100759.50;;;22.00
34961;BMP280;30789;52.030;7.110;2022-10-26T13:47:01;100767.75;;;22.56
34961;BMP280;30789;52.030;7.110;2022-10-26T13:49:29;100758.53;;;22.38
34961;BMP280;30789;52.030;7.110;2022-10-26T13:52:00;100765.91;;;21.83
34961;BMP280;30789;52.030;7.110;2022-10-26T13:54:33;100761.75;;;21.30
34961;BMP280;30789;52.030;7.110;2022-10-26T13:57:12;100765.03;;;21.47
34961;BMP280;30789;52.030;7.110;2022-10-26T13:59:42;100751.69;;;22.11
34961;BMP280;30789;52.030;7.110;2022-10-26T14:02:21;100753.63;;;22.20
34961;BMP280;30789;52.030;7.110;2022-10-26T14:04:51;100754.31;;;22.35
34961;BMP280;30789;52.030;7.110;2022-10-26T14:07:21;100760.34;;;22.37
34961;BMP280;30789;52.030;7.110;2022-10-26T14:09:53;100762.25;;;21.99
34961;BMP280;30789;52.030;7.110;2022-10-26T14:12:20;100771.41;;;21.80
34961;BMP280;30789;52.030;7.110;2022-10-26T14:14:48;100773.47;;;22.13
34961;BMP280;30789;52.030;7.110;2022-10-26T14:17:19;100780.31;;;22.16
34961;BMP280;30789;52.030;7.110;2022-10-26T14:19:47;100783.31;;;21.48
34961;BMP280;30789;52.030;7.110;2022-10-26T14:22:21;100789.63;;;21.71
34961;BMP280;30789;52.030;7.110;2022-10-26T14:24:52;100798.97;;;21.88
34961;BMP280;30789;52.030;7.110;2022-10-26T14:27:21;100806.66;;;21.78